Terminal Aerodrome Forecast
Issued by NWS

Home | Current Version | Previous Version | Text Only | Print | Product List | Glossary On
Versions: 1 2 3 4 5 6 7 8 9 10 11 12 13
000
FTUS45 KRIW 231100
TAFBPI
TAF
KBPI 231127Z 2312/2412 33011KT P6SM VCSH SCT030 BKN050
     FM231500 33018G28KT P6SM SCT060
     FM240100 34008KT P6SM SCT040 BKN060
     FM241100 33015KT P6SM BKN040=

USA.gov is the U.S. government's official web portal to all federal, state and local government web resources and services.